createdAt,value
2023-05-23T00:00:53.329Z,98314.97
2023-05-23T00:04:58.727Z,98319.44
2023-05-23T00:09:00.962Z,98320.75
2023-05-23T00:13:03.175Z,98325.88
2023-05-23T00:17:06.522Z,98319.03
2023-05-23T00:21:10.090Z,98321.00
2023-05-23T00:25:12.299Z,98316.44
2023-05-23T00:29:18.212Z,98320.19
2023-05-23T00:33:22.204Z,98316.97
2023-05-23T00:37:24.652Z,98319.16
2023-05-23T00:41:27.118Z,98317.38
2023-05-23T00:45:29.291Z,98313.91
2023-05-23T00:49:31.968Z,98314.97
2023-05-23T00:53:35.102Z,98312.09
2023-05-23T00:57:41.605Z,98317.47
2023-05-23T01:01:47.353Z,98317.38
2023-05-23T01:05:55.495Z,98306.13
2023-05-23T01:10:03.348Z,98316.91
2023-05-23T01:14:28.490Z,98308.44
2023-05-23T01:18:38.522Z,98310.06
2023-05-23T01:22:55.944Z,98311.38
2023-05-23T01:27:01.199Z,98310.72
2023-05-23T01:31:07.064Z,98313.53
2023-05-23T01:35:11.235Z,98307.00
2023-05-23T01:39:13.379Z,98311.19
2023-05-23T01:43:16.229Z,98307.72
2023-05-23T01:47:18.541Z,98309.44
2023-05-23T01:51:23.096Z,98308.56
2023-05-23T01:55:26.673Z,98309.06
2023-05-23T01:59:29.397Z,98306.97
2023-05-23T02:03:33.435Z,98308.34
2023-05-23T02:07:35.590Z,98307.00
2023-05-23T02:11:37.760Z,98305.97
2023-05-23T02:15:39.998Z,98300.69
2023-05-23T02:19:42.189Z,98304.16
2023-05-23T02:23:44.296Z,98299.38
2023-05-23T02:27:46.461Z,98304.81
2023-05-23T02:31:48.724Z,98304.28
2023-05-23T02:35:51.687Z,98296.56
2023-05-23T02:39:54.225Z,98297.13
2023-05-23T02:43:57.882Z,98303.28
2023-05-23T02:48:02.234Z,98304.94
2023-05-23T02:52:04.875Z,98304.59
2023-05-23T02:56:08.180Z,98309.22
2023-05-23T03:00:12.326Z,98307.84
2023-05-23T03:04:16.680Z,98310.00
2023-05-23T03:08:18.780Z,98321.22
2023-05-23T03:12:21.222Z,98312.66
2023-05-23T03:16:26.631Z,98306.84
2023-05-23T03:20:29.447Z,98312.72
2023-05-23T03:24:32.049Z,98313.22
2023-05-23T03:28:34.128Z,98314.59
2023-05-23T03:32:36.470Z,98314.84
2023-05-23T03:36:39.472Z,98316.97
2023-05-23T03:40:41.954Z,98311.88
2023-05-23T03:44:44.057Z,98310.28
2023-05-23T03:48:46.829Z,98315.91
2023-05-23T03:52:49.117Z,98309.47
2023-05-23T03:56:51.253Z,98315.59
2023-05-23T04:00:54.660Z,98319.34
2023-05-23T04:04:57.215Z,98321.44
2023-05-23T04:09:00.126Z,98322.22
2023-05-23T04:13:02.358Z,98323.78
2023-05-23T04:17:05.051Z,98320.03
2023-05-23T04:21:07.212Z,98324.31
2023-05-23T04:25:15.307Z,98324.31
2023-05-23T04:29:26.299Z,98323.41
2023-05-23T04:33:30.762Z,98322.88
2023-05-23T04:37:34.119Z,98327.94
2023-05-23T04:41:36.981Z,98326.81
2023-05-23T04:45:54.496Z,98328.00
2023-05-23T04:50:16.806Z,98324.47
2023-05-23T04:54:20.459Z,98322.78
2023-05-23T04:58:23.476Z,98322.44
2023-05-23T05:02:35.351Z,98325.31
2023-05-23T05:06:38.426Z,98325.25
2023-05-23T05:10:41.773Z,98324.28
2023-05-23T05:19:29.245Z,98327.16
2023-05-23T05:23:32.140Z,98329.34
2023-05-23T05:27:38.076Z,98322.41
2023-05-23T05:31:43.580Z,98323.63
2023-05-23T05:35:45.949Z,98332.22
2023-05-23T05:39:48.310Z,98325.44
2023-05-23T05:43:50.950Z,98327.47
2023-05-23T05:47:53.704Z,98321.59
2023-05-23T05:51:58.356Z,98321.75
2023-05-23T05:56:00.829Z,98314.72
2023-05-23T06:00:09.504Z,98323.25
2023-05-23T06:04:21.622Z,98319.88
2023-05-23T06:08:25.143Z,98319.59
2023-05-23T06:12:27.372Z,98326.97
2023-05-23T06:16:29.550Z,98327.19
2023-05-23T06:20:32.168Z,98328.16
2023-05-23T06:24:37.216Z,98333.63
2023-05-23T06:28:42.146Z,98320.38
2023-05-23T06:32:44.342Z,98329.00
2023-05-23T06:36:48.670Z,98328.66
2023-05-23T06:40:51.464Z,98331.84
2023-05-23T06:44:54.223Z,98324.41
2023-05-23T06:49:06.593Z,98318.69
2023-05-23T06:53:19.165Z,98327.56
2023-05-23T06:57:23.351Z,98327.47
2023-05-23T07:01:27.010Z,98324.41
2023-05-23T07:05:29.609Z,98322.75
2023-05-23T07:09:33.138Z,98320.88
2023-05-23T07:13:43.873Z,98322.84
2023-05-23T07:17:53.474Z,98323.22
2023-05-23T07:21:55.861Z,98331.66
2023-05-23T07:26:02.515Z,98328.03
2023-05-23T07:30:24.534Z,98309.66
2023-05-23T07:34:30.659Z,98313.28
2023-05-23T07:38:35.851Z,98310.53
2023-05-23T07:42:38.207Z,98314.50
2023-05-23T07:46:40.275Z,98327.97
2023-05-23T07:50:42.938Z,98317.75
2023-05-23T07:54:45.314Z,98313.56
2023-05-23T07:58:48.366Z,98314.78
2023-05-23T08:02:51.527Z,98310.91
2023-05-23T08:07:05.500Z,98306.03
2023-05-23T08:11:39.537Z,98314.97
2023-05-23T08:16:01.428Z,98315.25
2023-05-23T08:20:08.860Z,98305.88
2023-05-23T08:24:14.773Z,98309.78
2023-05-23T08:28:18.842Z,98310.00
2023-05-23T08:32:28.869Z,98301.69
2023-05-23T08:36:34.363Z,98305.38
2023-05-23T08:40:37.422Z,98307.47
2023-05-23T08:44:46.406Z,98313.91
2023-05-23T08:48:54.763Z,98311.56
2023-05-23T08:52:59.585Z,98308.69
2023-05-23T08:57:03.759Z,98319.63
2023-05-23T09:01:11.703Z,98310.53
2023-05-23T09:05:14.882Z,98311.88
2023-05-23T09:09:17.740Z,98319.34
2023-05-23T09:13:21.243Z,98316.13
2023-05-23T09:17:26.230Z,98318.50
2023-05-23T09:21:32.045Z,98313.88
2023-05-23T09:25:48.302Z,98307.31
2023-05-23T09:29:51.406Z,98312.00
2023-05-23T09:33:54.733Z,98311.09
2023-05-23T09:37:59.279Z,98300.84
2023-05-23T09:42:02.017Z,98296.50
2023-05-23T09:46:08.699Z,98287.72
2023-05-23T09:50:13.279Z,98282.84
2023-05-23T09:54:15.598Z,98289.56
2023-05-23T09:58:20.216Z,98284.22
2023-05-23T10:02:48.504Z,98273.50
2023-05-23T10:06:54.283Z,98276.47
2023-05-23T10:11:17.180Z,98279.97
2023-05-23T10:15:22.190Z,98273.66
2023-05-23T10:19:28.313Z,98266.50
2023-05-23T10:23:33.658Z,98262.47
2023-05-23T10:27:39.516Z,98265.06
2023-05-23T10:31:42.169Z,98262.34
2023-05-23T10:36:00.195Z,98261.81
2023-05-23T10:40:10.051Z,98262.22
2023-05-23T10:44:32.215Z,98254.91
2023-05-23T10:48:41.139Z,98261.94
2023-05-23T10:52:43.996Z,98257.22
2023-05-23T10:56:46.601Z,98251.97
2023-05-23T11:00:57.125Z,98257.16
2023-05-23T11:05:25.176Z,98250.09
2023-05-23T11:09:27.319Z,98243.97
2023-05-23T11:14:02.910Z,98242.59
2023-05-23T11:18:06.996Z,98250.75
2023-05-23T11:22:09.516Z,98249.56
2023-05-23T11:26:31.586Z,98231.53
2023-05-23T11:30:37.406Z,98230.53
2023-05-23T11:34:40.321Z,98230.00
2023-05-23T11:38:42.572Z,98229.03
2023-05-23T11:42:44.685Z,98234.47
2023-05-23T11:47:00.113Z,98229.84
2023-05-23T11:51:02.867Z,98231.75
2023-05-23T11:55:06.927Z,98225.91
2023-05-23T11:59:09.617Z,98210.50
2023-05-23T12:03:12.082Z,98209.75
2023-05-23T12:07:14.323Z,98197.06
2023-05-23T12:11:16.674Z,98204.97
2023-05-23T12:15:18.945Z,98205.00
2023-05-23T12:19:21.309Z,98192.97
2023-05-23T12:23:24.774Z,98204.06
2023-05-23T12:27:31.714Z,98198.38
2023-05-23T12:31:34.398Z,98194.00
2023-05-23T12:35:36.883Z,98190.97
2023-05-23T12:39:39.186Z,98177.34
2023-05-23T12:43:49.201Z,98184.81
2023-05-23T12:47:53.941Z,98175.03
2023-05-23T12:51:56.566Z,98173.06
2023-05-23T12:55:58.703Z,98167.19
2023-05-23T13:00:01.366Z,98169.53
2023-05-23T13:04:03.639Z,98173.88
2023-05-23T13:08:06.861Z,98174.25
2023-05-23T13:12:09.436Z,98158.16
2023-05-23T13:16:12.281Z,98158.41
2023-05-23T13:20:14.824Z,98151.47
2023-05-23T13:24:17.180Z,98156.19
2023-05-23T13:28:19.588Z,98161.31
2023-05-23T13:32:21.723Z,98162.47
2023-05-23T13:36:23.970Z,98165.56
2023-05-23T13:40:26.213Z,98165.22
2023-05-23T13:44:28.576Z,98162.34
2023-05-23T13:48:31.001Z,98154.13
2023-05-23T13:52:33.239Z,98156.84
2023-05-23T13:56:35.613Z,98171.31
2023-05-23T14:00:37.811Z,98159.84
2023-05-23T14:04:39.931Z,98171.16
2023-05-23T14:08:42.331Z,98169.34
2023-05-23T14:12:44.530Z,98161.41
2023-05-23T14:16:46.842Z,98165.75
2023-05-23T14:20:49.185Z,98160.78
2023-05-23T14:24:51.410Z,98157.69
2023-05-23T14:28:53.739Z,98162.41
2023-05-23T14:32:56.244Z,98152.13
2023-05-23T14:36:58.533Z,98148.06
2023-05-23T14:41:00.688Z,98131.44
2023-05-23T14:45:02.978Z,98127.47
2023-05-23T14:49:05.205Z,98128.28
2023-05-23T14:53:07.279Z,98133.63
2023-05-23T14:57:10.066Z,98130.47
2023-05-23T15:01:14.444Z,98146.03
2023-05-23T15:05:17.182Z,98145.94
2023-05-23T15:09:19.542Z,98151.44
2023-05-23T15:13:22.136Z,98147.16
2023-05-23T15:17:26.594Z,98157.38
2023-05-23T15:21:29.286Z,98155.28
2023-05-23T15:25:48.126Z,98147.00
2023-05-23T15:29:52.047Z,98156.72
2023-05-23T15:33:54.213Z,98144.91
2023-05-23T15:37:56.309Z,98133.44
2023-05-23T15:41:59.431Z,98121.75
2023-05-23T15:46:02.447Z,98121.94
2023-05-23T15:50:05.570Z,98103.00
2023-05-23T15:54:07.707Z,98106.97
2023-05-23T15:58:11.126Z,98102.91
2023-05-23T16:02:13.245Z,98120.75
2023-05-23T16:06:15.374Z,98132.06
2023-05-23T16:10:17.666Z,98133.03
2023-05-23T16:14:19.809Z,98144.31
2023-05-23T16:18:24.219Z,98138.06
2023-05-23T16:22:26.903Z,98137.97
2023-05-23T16:26:31.238Z,98142.78
2023-05-23T16:30:37.575Z,98160.41
2023-05-23T16:34:45.938Z,98169.75
2023-05-23T16:38:55.793Z,98176.16
2023-05-23T16:42:59.333Z,98164.88
2023-05-23T16:47:02.857Z,98164.00
2023-05-23T16:51:05.894Z,98178.97
2023-05-23T16:55:08.190Z,98202.50
2023-05-23T16:59:10.338Z,98204.34
2023-05-23T17:03:12.879Z,98209.00
2023-05-23T17:07:16.046Z,98209.84
2023-05-23T17:11:18.191Z,98209.78
2023-05-23T17:15:20.464Z,98215.97
2023-05-23T17:19:22.698Z,98223.06
2023-05-23T17:23:25.269Z,98219.66
2023-05-23T17:27:27.864Z,98242.22
2023-05-23T17:31:30.913Z,98239.59
2023-05-23T17:35:33.197Z,98251.06
2023-05-23T17:39:35.331Z,98268.94
2023-05-23T17:43:37.486Z,98260.13
2023-05-23T17:47:39.751Z,98250.78
2023-05-23T17:51:42.114Z,98256.66
2023-05-23T17:55:44.215Z,98263.69
2023-05-23T17:59:46.762Z,98267.19
2023-05-23T18:03:49.211Z,98272.69
2023-05-23T18:07:51.421Z,98283.31
2023-05-23T18:11:53.601Z,98281.16
2023-05-23T18:15:55.790Z,98277.56
2023-05-23T18:19:58.224Z,98282.50
2023-05-23T18:24:01.567Z,98288.34
2023-05-23T18:28:04.045Z,98287.13
2023-05-23T18:32:06.625Z,98293.28
2023-05-23T18:36:08.992Z,98306.06
2023-05-23T18:40:12.107Z,98315.19
2023-05-23T18:44:14.472Z,98327.22
2023-05-23T18:48:16.795Z,98344.38
2023-05-23T18:52:19.278Z,98345.97
2023-05-23T18:56:22.053Z,98348.31
2023-05-23T19:00:24.475Z,98344.16
2023-05-23T19:04:27.069Z,98351.78
2023-05-23T19:08:32.886Z,98353.03
2023-05-23T19:12:35.519Z,98372.19
2023-05-23T19:16:38.641Z,98390.81
2023-05-23T19:20:41.363Z,98403.22
2023-05-23T19:24:44.260Z,98405.53
2023-05-23T19:28:46.375Z,98410.81
2023-05-23T19:32:48.523Z,98421.44
2023-05-23T19:36:50.782Z,98425.56
2023-05-23T19:40:52.929Z,98436.97
2023-05-23T19:44:58.848Z,98420.44
2023-05-23T19:49:01.972Z,98427.38
2023-05-23T19:53:04.172Z,98428.34
2023-05-23T19:57:07.803Z,98449.50
2023-05-23T20:01:13.224Z,98447.25
2023-05-23T20:05:16.546Z,98448.06
2023-05-23T20:09:18.841Z,98446.16
2023-05-23T20:13:22.592Z,98436.72
2023-05-23T20:17:24.801Z,98447.34
2023-05-23T20:21:27.412Z,98452.31
2023-05-23T20:25:31.690Z,98452.69
2023-05-23T20:29:35.138Z,98456.16
2023-05-23T20:33:39.135Z,98455.09
2023-05-23T20:37:41.392Z,98451.53
2023-05-23T20:41:43.982Z,98441.72
2023-05-23T20:45:46.271Z,98439.69
2023-05-23T20:49:49.355Z,98430.28
2023-05-23T20:53:53.375Z,98432.78
2023-05-23T20:57:55.741Z,98423.31
2023-05-23T21:01:57.944Z,98424.28
2023-05-23T21:06:00.116Z,98420.13
2023-05-23T21:10:02.799Z,98405.28
2023-05-23T21:14:04.950Z,98406.53
2023-05-23T21:18:07.341Z,98387.00
2023-05-23T21:22:09.590Z,98390.81
2023-05-23T21:26:11.948Z,98394.41
2023-05-23T21:30:15.478Z,98388.78
2023-05-23T21:34:23.835Z,98399.22
2023-05-23T21:38:26.763Z,98395.28
2023-05-23T21:42:31.045Z,98400.56
2023-05-23T21:46:33.164Z,98396.28
2023-05-23T21:50:35.246Z,98389.84
2023-05-23T21:54:37.749Z,98394.97
2023-05-23T21:58:39.911Z,98391.47
2023-05-23T22:02:44.444Z,98398.31
2023-05-23T22:06:47.034Z,98382.53
2023-05-23T22:10:49.446Z,98391.38
2023-05-23T22:14:51.925Z,98384.63
2023-05-23T22:18:54.031Z,98383.22
2023-05-23T22:22:56.429Z,98386.75
2023-05-23T22:26:58.737Z,98380.09
2023-05-23T22:31:02.425Z,98397.03
2023-05-23T22:35:04.719Z,98404.66
2023-05-23T22:39:06.868Z,98406.75
2023-05-23T22:43:09.278Z,98394.97
2023-05-23T22:47:13.821Z,98390.72
2023-05-23T22:51:16.682Z,98407.09
2023-05-23T22:55:19.279Z,98407.59
2023-05-23T22:59:21.373Z,98406.59
2023-05-23T23:03:23.640Z,98408.28
2023-05-23T23:07:25.774Z,98420.44
2023-05-23T23:11:27.940Z,98431.00
2023-05-23T23:15:30.393Z,98416.63
2023-05-23T23:19:35.374Z,98416.25
2023-05-23T23:23:38.448Z,98415.38
2023-05-23T23:27:40.863Z,98413.41
2023-05-23T23:31:42.996Z,98424.69
2023-05-23T23:35:48.684Z,98419.53
2023-05-23T23:39:51.045Z,98402.91
2023-05-23T23:43:53.149Z,98404.50
2023-05-23T23:47:55.627Z,98401.03
2023-05-23T23:51:57.702Z,98399.44
2023-05-23T23:55:59.864Z,98388.06
